Terminal Aerodrome Forecast
Issued by NWS Twin Cities, MN

Home | Current Version | Previous Version | Text Only | Print | Product List | Glossary On
Versions: 1 2 3 4 5 6 7 8 9 10 11 12 13 14 15 16
000
FTUS43 KMPX 232328
TAFSTC
TAF
KSTC 232328Z 2400/2424 VRB03KT P6SM FEW250
     FM240600 01004KT P6SM BKN100
     FM241400 01012G18KT P6SM BKN060
     FM242000 36010G16KT P6SM SCT200=

USA.gov is the U.S. government's official web portal to all federal, state and local government web resources and services.